Notre-Dame-Du-Laus, Canada
Current Conditions -  °F | °C
As of 6:00 PM on Sunday 21 Dec 2014 (Local Time) from CYND Reporting Station
Overcast Overcast  
Wind Chill: 19°   Ceiling: 1500
Heat Index: 19°   Visibility: 15mi
Dew Point: 16°   Wind: 3mph
Humidity: 86%   Direction: 60°ENE
Pressure: 30.38"   Gusts: NA
Location:  46.08°N, 75.62°W
Report Text: CYND 212300Z 06003KT 15SM OVC015 M07/M09 A3038 RMK SF8 SLP292
Loading
Personal Weather Stations






























Interactive Weather Map New forecast layout! Learn more

10-Day Weather Forecast

Advertisements
Track Severe Weather on mobile